sensor_id;sensor_type;location;lat;lon;timestamp;P1;durP1;ratioP1;P2;durP2;ratioP2
54201;SDS011;40108;53.152;5.844;2023-02-28T00:00:10;12.38;;;2.60;;
54201;SDS011;40108;53.152;5.844;2023-02-28T00:02:38;9.75;;;2.60;;
54201;SDS011;40108;53.152;5.844;2023-02-28T00:05:05;9.00;;;2.95;;
54201;SDS011;40108;53.152;5.844;2023-02-28T00:07:32;10.77;;;2.83;;
54201;SDS011;40108;53.152;5.844;2023-02-28T00:09:58;12.55;;;3.30;;
54201;SDS011;40108;53.152;5.844;2023-02-28T00:12:25;12.48;;;3.00;;
54201;SDS011;40108;53.152;5.844;2023-02-28T00:14:51;9.73;;;2.63;;
54201;SDS011;40108;53.152;5.844;2023-02-28T00:17:17;10.18;;;2.92;;
54201;SDS011;40108;53.152;5.844;2023-02-28T00:19:46;12.95;;;3.17;;
54201;SDS011;40108;53.152;5.844;2023-02-28T00:22:16;10.65;;;2.95;;
54201;SDS011;40108;53.152;5.844;2023-02-28T00:24:43;9.88;;;3.20;;
54201;SDS011;40108;53.152;5.844;2023-02-28T00:27:09;13.43;;;2.92;;
54201;SDS011;40108;53.152;5.844;2023-02-28T00:29:35;13.15;;;3.15;;
54201;SDS011;40108;53.152;5.844;2023-02-28T00:32:01;11.18;;;2.50;;
54201;SDS011;40108;53.152;5.844;2023-02-28T00:34:27;11.45;;;2.60;;
54201;SDS011;40108;53.152;5.844;2023-02-28T00:36:53;12.23;;;3.03;;
54201;SDS011;40108;53.152;5.844;2023-02-28T00:39:20;12.77;;;3.20;;
54201;SDS011;40108;53.152;5.844;2023-02-28T00:41:46;8.82;;;2.97;;
54201;SDS011;40108;53.152;5.844;2023-02-28T00:44:12;13.52;;;2.80;;
54201;SDS011;40108;53.152;5.844;2023-02-28T00:46:38;11.82;;;2.95;;
54201;SDS011;40108;53.152;5.844;2023-02-28T00:49:03;11.90;;;3.30;;
54201;SDS011;40108;53.152;5.844;2023-02-28T00:51:29;13.98;;;2.97;;
54201;SDS011;40108;53.152;5.844;2023-02-28T00:53:55;16.50;;;3.20;;
54201;SDS011;40108;53.152;5.844;2023-02-28T00:56:20;11.38;;;2.63;;
54201;SDS011;40108;53.152;5.844;2023-02-28T00:58:46;8.23;;;2.70;;
54201;SDS011;40108;53.152;5.844;2023-02-28T01:01:12;7.75;;;2.60;;
54201;SDS011;40108;53.152;5.844;2023-02-28T01:03:38;14.70;;;3.10;;
54201;SDS011;40108;53.152;5.844;2023-02-28T01:06:04;9.95;;;2.28;;
54201;SDS011;40108;53.152;5.844;2023-02-28T01:08:30;10.48;;;2.58;;
54201;SDS011;40108;53.152;5.844;2023-02-28T01:10:55;11.32;;;2.65;;
54201;SDS011;40108;53.152;5.844;2023-02-28T01:13:21;10.32;;;3.15;;
54201;SDS011;40108;53.152;5.844;2023-02-28T01:15:52;7.70;;;2.67;;
54201;SDS011;40108;53.152;5.844;2023-02-28T01:18:20;10.45;;;2.28;;
54201;SDS011;40108;53.152;5.844;2023-02-28T01:20:46;12.85;;;2.80;;
54201;SDS011;40108;53.152;5.844;2023-02-28T01:23:13;12.77;;;2.88;;
54201;SDS011;40108;53.152;5.844;2023-02-28T01:25:38;9.88;;;2.28;;
54201;SDS011;40108;53.152;5.844;2023-02-28T01:28:05;11.02;;;2.50;;
54201;SDS011;40108;53.152;5.844;2023-02-28T01:30:31;12.30;;;2.65;;
54201;SDS011;40108;53.152;5.844;2023-02-28T01:32:57;9.98;;;2.50;;
54201;SDS011;40108;53.152;5.844;2023-02-28T01:35:23;12.13;;;2.50;;
54201;SDS011;40108;53.152;5.844;2023-02-28T01:37:49;7.93;;;2.47;;
54201;SDS011;40108;53.152;5.844;2023-02-28T01:40:15;13.13;;;2.60;;
54201;SDS011;40108;53.152;5.844;2023-02-28T01:42:40;10.90;;;3.17;;
54201;SDS011;40108;53.152;5.844;2023-02-28T01:45:20;8.30;;;2.38;;
54201;SDS011;40108;53.152;5.844;2023-02-28T01:47:52;10.20;;;2.20;;
54201;SDS011;40108;53.152;5.844;2023-02-28T01:50:23;11.10;;;2.45;;
54201;SDS011;40108;53.152;5.844;2023-02-28T01:52:51;10.63;;;2.03;;
54201;SDS011;40108;53.152;5.844;2023-02-28T01:55:22;8.25;;;1.83;;
54201;SDS011;40108;53.152;5.844;2023-02-28T01:57:54;7.00;;;2.33;;
54201;SDS011;40108;53.152;5.844;2023-02-28T02:00:23;10.48;;;2.30;;
54201;SDS011;40108;53.152;5.844;2023-02-28T02:02:55;8.30;;;2.20;;
54201;SDS011;40108;53.152;5.844;2023-02-28T02:05:23;8.45;;;2.28;;
54201;SDS011;40108;53.152;5.844;2023-02-28T02:07:55;8.95;;;2.72;;
54201;SDS011;40108;53.152;5.844;2023-02-28T02:10:43;7.65;;;2.70;;
54201;SDS011;40108;53.152;5.844;2023-02-28T02:13:43;7.88;;;2.95;;
54201;SDS011;40108;53.152;5.844;2023-02-28T02:16:29;9.70;;;2.95;;
54201;SDS011;40108;53.152;5.844;2023-02-28T02:24:58;11.02;;;3.17;;
54201;SDS011;40108;53.152;5.844;2023-02-28T02:36:38;9.45;;;3.05;;
54201;SDS011;40108;53.152;5.844;2023-02-28T02:39:17;7.07;;;2.78;;
54201;SDS011;40108;53.152;5.844;2023-02-28T02:41:55;9.45;;;2.95;;
54201;SDS011;40108;53.152;5.844;2023-02-28T02:44:30;11.50;;;2.65;;
54201;SDS011;40108;53.152;5.844;2023-02-28T02:47:03;15.35;;;2.90;;
54201;SDS011;40108;53.152;5.844;2023-02-28T02:49:35;11.13;;;3.20;;
54201;SDS011;40108;53.152;5.844;2023-02-28T02:52:04;10.73;;;3.17;;
54201;SDS011;40108;53.152;5.844;2023-02-28T02:54:37;13.23;;;3.38;;
54201;SDS011;40108;53.152;5.844;2023-02-28T02:57:07;11.80;;;2.90;;
54201;SDS011;40108;53.152;5.844;2023-02-28T02:59:37;7.63;;;2.97;;
54201;SDS011;40108;53.152;5.844;2023-02-28T03:02:06;13.50;;;2.70;;
54201;SDS011;40108;53.152;5.844;2023-02-28T03:04:38;9.82;;;2.80;;
54201;SDS011;40108;53.152;5.844;2023-02-28T03:07:08;6.55;;;2.70;;
54201;SDS011;40108;53.152;5.844;2023-02-28T03:09:34;10.90;;;2.78;;
54201;SDS011;40108;53.152;5.844;2023-02-28T03:12:03;6.82;;;2.30;;
54201;SDS011;40108;53.152;5.844;2023-02-28T03:17:30;13.75;;;2.80;;
54201;SDS011;40108;53.152;5.844;2023-02-28T03:20:27;8.63;;;2.70;;
54201;SDS011;40108;53.152;5.844;2023-02-28T03:22:56;11.32;;;2.47;;
54201;SDS011;40108;53.152;5.844;2023-02-28T03:25:31;8.52;;;3.55;;
54201;SDS011;40108;53.152;5.844;2023-02-28T03:31:27;9.95;;;2.28;;
54201;SDS011;40108;53.152;5.844;2023-02-28T03:34:00;14.48;;;2.65;;
54201;SDS011;40108;53.152;5.844;2023-02-28T03:36:33;8.95;;;2.60;;
54201;SDS011;40108;53.152;5.844;2023-02-28T03:39:11;13.90;;;2.75;;
54201;SDS011;40108;53.152;5.844;2023-02-28T03:41:57;6.32;;;2.42;;
54201;SDS011;40108;53.152;5.844;2023-02-28T03:44:35;7.50;;;2.58;;
54201;SDS011;40108;53.152;5.844;2023-02-28T03:47:17;9.10;;;2.58;;
54201;SDS011;40108;53.152;5.844;2023-02-28T03:49:52;11.35;;;2.80;;
54201;SDS011;40108;53.152;5.844;2023-02-28T03:52:23;7.88;;;2.83;;
54201;SDS011;40108;53.152;5.844;2023-02-28T03:54:54;8.70;;;2.63;;
54201;SDS011;40108;53.152;5.844;2023-02-28T03:57:32;5.32;;;2.47;;
54201;SDS011;40108;53.152;5.844;2023-02-28T04:02:37;6.10;;;2.08;;
54201;SDS011;40108;53.152;5.844;2023-02-28T04:05:05;10.65;;;2.60;;
54201;SDS011;40108;53.152;5.844;2023-02-28T04:07:31;7.57;;;2.65;;
54201;SDS011;40108;53.152;5.844;2023-02-28T04:09:57;13.85;;;2.97;;
54201;SDS011;40108;53.152;5.844;2023-02-28T04:12:23;11.18;;;3.00;;
54201;SDS011;40108;53.152;5.844;2023-02-28T04:14:49;14.23;;;2.65;;
54201;SDS011;40108;53.152;5.844;2023-02-28T04:17:15;8.20;;;2.30;;
54201;SDS011;40108;53.152;5.844;2023-02-28T04:19:41;7.72;;;2.22;;
54201;SDS011;40108;53.152;5.844;2023-02-28T04:22:07;6.90;;;2.03;;
54201;SDS011;40108;53.152;5.844;2023-02-28T04:24:34;8.75;;;2.10;;
54201;SDS011;40108;53.152;5.844;2023-02-28T04:27:00;10.00;;;2.10;;
54201;SDS011;40108;53.152;5.844;2023-02-28T04:29:28;8.38;;;2.05;;
54201;SDS011;40108;53.152;5.844;2023-02-28T04:31:55;7.93;;;2.15;;
54201;SDS011;40108;53.152;5.844;2023-02-28T04:34:25;18.25;;;2.15;;
54201;SDS011;40108;53.152;5.844;2023-02-28T04:36:51;10.32;;;2.40;;
54201;SDS011;40108;53.152;5.844;2023-02-28T04:39:19;13.20;;;2.13;;
54201;SDS011;40108;53.152;5.844;2023-02-28T04:41:46;6.35;;;1.92;;
54201;SDS011;40108;53.152;5.844;2023-02-28T04:44:12;8.50;;;2.05;;
54201;SDS011;40108;53.152;5.844;2023-02-28T04:46:39;10.98;;;2.00;;
54201;SDS011;40108;53.152;5.844;2023-02-28T04:49:05;10.57;;;1.88;;
54201;SDS011;40108;53.152;5.844;2023-02-28T04:51:30;6.50;;;2.30;;
54201;SDS011;40108;53.152;5.844;2023-02-28T04:53:56;9.88;;;2.00;;
54201;SDS011;40108;53.152;5.844;2023-02-28T04:56:22;11.07;;;2.20;;
54201;SDS011;40108;53.152;5.844;2023-02-28T04:58:48;8.23;;;2.35;;
54201;SDS011;40108;53.152;5.844;2023-02-28T05:01:26;7.88;;;2.50;;
54201;SDS011;40108;53.152;5.844;2023-02-28T05:03:54;11.77;;;2.65;;
54201;SDS011;40108;53.152;5.844;2023-02-28T05:06:22;14.35;;;2.65;;
54201;SDS011;40108;53.152;5.844;2023-02-28T05:08:49;11.00;;;2.35;;
54201;SDS011;40108;53.152;5.844;2023-02-28T05:13:44;13.57;;;2.47;;
54201;SDS011;40108;53.152;5.844;2023-02-28T05:16:10;8.63;;;2.15;;
54201;SDS011;40108;53.152;5.844;2023-02-28T05:18:36;11.10;;;2.40;;
54201;SDS011;40108;53.152;5.844;2023-02-28T05:21:02;7.47;;;1.92;;
54201;SDS011;40108;53.152;5.844;2023-02-28T05:23:28;7.95;;;2.70;;
54201;SDS011;40108;53.152;5.844;2023-02-28T05:25:54;8.45;;;2.38;;
54201;SDS011;40108;53.152;5.844;2023-02-28T05:28:20;11.85;;;2.67;;
54201;SDS011;40108;53.152;5.844;2023-02-28T05:30:46;14.10;;;2.67;;
54201;SDS011;40108;53.152;5.844;2023-02-28T05:33:13;8.02;;;2.50;;
54201;SDS011;40108;53.152;5.844;2023-02-28T05:35:39;10.23;;;2.83;;
54201;SDS011;40108;53.152;5.844;2023-02-28T05:38:07;12.00;;;3.70;;
54201;SDS011;40108;53.152;5.844;2023-02-28T05:40:32;5.50;;;2.78;;
54201;SDS011;40108;53.152;5.844;2023-02-28T05:42:58;9.32;;;3.58;;
54201;SDS011;40108;53.152;5.844;2023-02-28T05:45:24;8.88;;;4.50;;
54201;SDS011;40108;53.152;5.844;2023-02-28T05:47:52;14.93;;;6.15;;
54201;SDS011;40108;53.152;5.844;2023-02-28T05:50:19;7.57;;;4.90;;
54201;SDS011;40108;53.152;5.844;2023-02-28T05:52:48;9.43;;;6.30;;
54201;SDS011;40108;53.152;5.844;2023-02-28T05:55:17;10.38;;;7.32;;
54201;SDS011;40108;53.152;5.844;2023-02-28T05:57:43;8.80;;;6.25;;
54201;SDS011;40108;53.152;5.844;2023-02-28T06:00:09;12.13;;;6.82;;
54201;SDS011;40108;53.152;5.844;2023-02-28T06:02:36;9.25;;;6.40;;
54201;SDS011;40108;53.152;5.844;2023-02-28T06:05:03;10.98;;;6.13;;
54201;SDS011;40108;53.152;5.844;2023-02-28T06:07:29;7.32;;;4.10;;
54201;SDS011;40108;53.152;5.844;2023-02-28T06:09:55;6.05;;;5.00;;
54201;SDS011;40108;53.152;5.844;2023-02-28T06:12:20;10.20;;;5.57;;
54201;SDS011;40108;53.152;5.844;2023-02-28T06:14:46;8.98;;;5.00;;
54201;SDS011;40108;53.152;5.844;2023-02-28T06:17:12;7.72;;;5.22;;
54201;SDS011;40108;53.152;5.844;2023-02-28T06:19:38;7.68;;;5.25;;
54201;SDS011;40108;53.152;5.844;2023-02-28T06:22:04;7.03;;;5.25;;
54201;SDS011;40108;53.152;5.844;2023-02-28T06:24:30;6.75;;;5.22;;
54201;SDS011;40108;53.152;5.844;2023-02-28T06:26:56;7.68;;;5.03;;
54201;SDS011;40108;53.152;5.844;2023-02-28T06:29:24;7.82;;;4.93;;
54201;SDS011;40108;53.152;5.844;2023-02-28T06:31:50;6.13;;;4.07;;
54201;SDS011;40108;53.152;5.844;2023-02-28T06:34:16;7.90;;;6.00;;
54201;SDS011;40108;53.152;5.844;2023-02-28T06:36:42;9.10;;;6.97;;
54201;SDS011;40108;53.152;5.844;2023-02-28T06:39:08;10.13;;;6.88;;
54201;SDS011;40108;53.152;5.844;2023-02-28T06:41:35;8.43;;;6.57;;
54201;SDS011;40108;53.152;5.844;2023-02-28T06:44:03;8.75;;;5.75;;
54201;SDS011;40108;53.152;5.844;2023-02-28T06:46:30;9.38;;;6.95;;
54201;SDS011;40108;53.152;5.844;2023-02-28T06:48:57;13.93;;;8.70;;
54201;SDS011;40108;53.152;5.844;2023-02-28T06:51:23;9.32;;;6.50;;
54201;SDS011;40108;53.152;5.844;2023-02-28T06:53:49;10.88;;;8.25;;
54201;SDS011;40108;53.152;5.844;2023-02-28T06:56:16;14.30;;;9.88;;
54201;SDS011;40108;53.152;5.844;2023-02-28T06:58:45;13.88;;;9.82;;
54201;SDS011;40108;53.152;5.844;2023-02-28T07:01:13;9.77;;;7.18;;
54201;SDS011;40108;53.152;5.844;2023-02-28T07:03:39;14.82;;;9.65;;
54201;SDS011;40108;53.152;5.844;2023-02-28T07:06:05;15.13;;;10.23;;
54201;SDS011;40108;53.152;5.844;2023-02-28T07:08:32;15.13;;;10.68;;
54201;SDS011;40108;53.152;5.844;2023-02-28T07:10:59;15.43;;;11.30;;
54201;SDS011;40108;53.152;5.844;2023-02-28T07:13:25;17.23;;;11.43;;
54201;SDS011;40108;53.152;5.844;2023-02-28T07:15:54;18.95;;;11.50;;
54201;SDS011;40108;53.152;5.844;2023-02-28T07:18:24;16.13;;;11.43;;
54201;SDS011;40108;53.152;5.844;2023-02-28T07:20:50;14.60;;;10.10;;
54201;SDS011;40108;53.152;5.844;2023-02-28T07:23:17;13.05;;;9.52;;
54201;SDS011;40108;53.152;5.844;2023-02-28T07:25:43;17.75;;;11.60;;
54201;SDS011;40108;53.152;5.844;2023-02-28T07:28:09;18.02;;;13.52;;
54201;SDS011;40108;53.152;5.844;2023-02-28T07:30:34;19.55;;;12.25;;
54201;SDS011;40108;53.152;5.844;2023-02-28T07:33:00;22.35;;;13.68;;
54201;SDS011;40108;53.152;5.844;2023-02-28T07:35:26;19.13;;;12.13;;
54201;SDS011;40108;53.152;5.844;2023-02-28T07:37:51;24.23;;;14.82;;
54201;SDS011;40108;53.152;5.844;2023-02-28T07:40:17;22.10;;;13.88;;
54201;SDS011;40108;53.152;5.844;2023-02-28T07:42:43;23.60;;;15.10;;
54201;SDS011;40108;53.152;5.844;2023-02-28T07:45:09;25.63;;;15.50;;
54201;SDS011;40108;53.152;5.844;2023-02-28T07:47:39;22.65;;;13.80;;
54201;SDS011;40108;53.152;5.844;2023-02-28T07:50:07;24.50;;;15.13;;
54201;SDS011;40108;53.152;5.844;2023-02-28T07:52:35;22.83;;;14.65;;
54201;SDS011;40108;53.152;5.844;2023-02-28T07:55:02;17.00;;;11.68;;
54201;SDS011;40108;53.152;5.844;2023-02-28T07:57:28;25.55;;;16.13;;
54201;SDS011;40108;53.152;5.844;2023-02-28T07:59:53;29.45;;;17.10;;
54201;SDS011;40108;53.152;5.844;2023-02-28T08:02:19;26.95;;;15.52;;
54201;SDS011;40108;53.152;5.844;2023-02-28T08:04:45;27.27;;;16.73;;
54201;SDS011;40108;53.152;5.844;2023-02-28T08:07:12;28.08;;;16.83;;
54201;SDS011;40108;53.152;5.844;2023-02-28T08:09:39;28.13;;;16.90;;
54201;SDS011;40108;53.152;5.844;2023-02-28T08:12:05;31.15;;;18.33;;
54201;SDS011;40108;53.152;5.844;2023-02-28T08:14:32;26.70;;;16.55;;
54201;SDS011;40108;53.152;5.844;2023-02-28T08:16:58;27.65;;;16.70;;
54201;SDS011;40108;53.152;5.844;2023-02-28T08:19:24;24.98;;;15.55;;
54201;SDS011;40108;53.152;5.844;2023-02-28T08:21:49;28.90;;;16.48;;
54201;SDS011;40108;53.152;5.844;2023-02-28T08:24:15;23.25;;;15.68;;
54201;SDS011;40108;53.152;5.844;2023-02-28T08:26:41;28.98;;;17.02;;
54201;SDS011;40108;53.152;5.844;2023-02-28T08:29:06;21.67;;;14.20;;
54201;SDS011;40108;53.152;5.844;2023-02-28T08:31:32;25.92;;;15.65;;
54201;SDS011;40108;53.152;5.844;2023-02-28T08:33:58;23.40;;;16.08;;
54201;SDS011;40108;53.152;5.844;2023-02-28T08:36:24;27.63;;;16.75;;
54201;SDS011;40108;53.152;5.844;2023-02-28T08:38:51;24.80;;;15.65;;
54201;SDS011;40108;53.152;5.844;2023-02-28T08:41:17;28.10;;;16.50;;
54201;SDS011;40108;53.152;5.844;2023-02-28T08:43:43;23.20;;;15.55;;
54201;SDS011;40108;53.152;5.844;2023-02-28T08:46:10;27.30;;;17.65;;
54201;SDS011;40108;53.152;5.844;2023-02-28T08:48:38;28.92;;;16.88;;
54201;SDS011;40108;53.152;5.844;2023-02-28T08:51:06;24.90;;;15.05;;
54201;SDS011;40108;53.152;5.844;2023-02-28T08:53:35;25.83;;;16.77;;
54201;SDS011;40108;53.152;5.844;2023-02-28T08:58:32;24.77;;;17.08;;
54201;SDS011;40108;53.152;5.844;2023-02-28T09:00:59;24.40;;;15.55;;
54201;SDS011;40108;53.152;5.844;2023-02-28T09:03:25;30.40;;;18.52;;
54201;SDS011;40108;53.152;5.844;2023-02-28T09:06:01;30.95;;;19.38;;
54201;SDS011;40108;53.152;5.844;2023-02-28T09:08:27;31.10;;;19.10;;
54201;SDS011;40108;53.152;5.844;2023-02-28T09:10:58;26.77;;;17.75;;
54201;SDS011;40108;53.152;5.844;2023-02-28T09:13:24;29.98;;;19.48;;
54201;SDS011;40108;53.152;5.844;2023-02-28T09:15:51;28.60;;;18.50;;
54201;SDS011;40108;53.152;5.844;2023-02-28T09:18:17;24.67;;;17.52;;
54201;SDS011;40108;53.152;5.844;2023-02-28T09:20:43;29.20;;;18.30;;
54201;SDS011;40108;53.152;5.844;2023-02-28T09:23:10;25.85;;;18.20;;
54201;SDS011;40108;53.152;5.844;2023-02-28T09:25:37;28.15;;;18.83;;
54201;SDS011;40108;53.152;5.844;2023-02-28T09:28:09;27.02;;;18.40;;
54201;SDS011;40108;53.152;5.844;2023-02-28T09:30:36;27.52;;;18.02;;
54201;SDS011;40108;53.152;5.844;2023-02-28T09:33:02;26.00;;;18.40;;
54201;SDS011;40108;53.152;5.844;2023-02-28T09:35:28;28.33;;;19.25;;
54201;SDS011;40108;53.152;5.844;2023-02-28T09:37:55;25.00;;;17.65;;
54201;SDS011;40108;53.152;5.844;2023-02-28T09:40:23;24.40;;;16.55;;
54201;SDS011;40108;53.152;5.844;2023-02-28T09:42:51;22.52;;;15.73;;
54201;SDS011;40108;53.152;5.844;2023-02-28T09:50:41;21.92;;;15.52;;
54201;SDS011;40108;53.152;5.844;2023-02-28T09:53:27;20.80;;;15.32;;
54201;SDS011;40108;53.152;5.844;2023-02-28T09:55:59;21.48;;;15.20;;
54201;SDS011;40108;53.152;5.844;2023-02-28T09:58:44;21.58;;;15.20;;
54201;SDS011;40108;53.152;5.844;2023-02-28T10:01:25;19.67;;;14.93;;
54201;SDS011;40108;53.152;5.844;2023-02-28T10:04:08;22.60;;;15.75;;
54201;SDS011;40108;53.152;5.844;2023-02-28T10:06:46;19.92;;;14.90;;
54201;SDS011;40108;53.152;5.844;2023-02-28T10:09:17;18.85;;;14.60;;
54201;SDS011;40108;53.152;5.844;2023-02-28T10:11:52;18.00;;;14.15;;
54201;SDS011;40108;53.152;5.844;2023-02-28T10:14:25;19.00;;;14.52;;
54201;SDS011;40108;53.152;5.844;2023-02-28T10:16:55;20.90;;;13.50;;
54201;SDS011;40108;53.152;5.844;2023-02-28T10:22:04;15.32;;;12.57;;
54201;SDS011;40108;53.152;5.844;2023-02-28T10:29:45;16.67;;;13.40;;
54201;SDS011;40108;53.152;5.844;2023-02-28T10:32:20;16.33;;;11.88;;
54201;SDS011;40108;53.152;5.844;2023-02-28T10:35:38;20.13;;;15.00;;
54201;SDS011;40108;53.152;5.844;2023-02-28T10:37:46;13.60;;;10.32;;
54201;SDS011;40108;53.152;5.844;2023-02-28T10:42:42;12.57;;;8.05;;
54201;SDS011;40108;53.152;5.844;2023-02-28T10:45:23;10.68;;;8.40;;
54201;SDS011;40108;53.152;5.844;2023-02-28T10:50:27;11.30;;;7.80;;
54201;SDS011;40108;53.152;5.844;2023-02-28T10:59:03;7.63;;;4.75;;
54201;SDS011;40108;53.152;5.844;2023-02-28T11:01:52;6.32;;;3.90;;
54201;SDS011;40108;53.152;5.844;2023-02-28T11:06:48;7.40;;;5.00;;
54201;SDS011;40108;53.152;5.844;2023-02-28T11:11:58;5.28;;;3.35;;
54201;SDS011;40108;53.152;5.844;2023-02-28T11:14:28;3.90;;;2.20;;
54201;SDS011;40108;53.152;5.844;2023-02-28T11:16:57;6.30;;;3.33;;
54201;SDS011;40108;53.152;5.844;2023-02-28T11:19:38;4.70;;;3.78;;
54201;SDS011;40108;53.152;5.844;2023-02-28T11:22:06;5.18;;;3.80;;
54201;SDS011;40108;53.152;5.844;2023-02-28T11:24:35;5.32;;;3.53;;
54201;SDS011;40108;53.152;5.844;2023-02-28T11:27:06;5.68;;;4.28;;
54201;SDS011;40108;53.152;5.844;2023-02-28T11:29:42;6.57;;;3.90;;
54201;SDS011;40108;53.152;5.844;2023-02-28T11:32:13;6.22;;;4.60;;
54201;SDS011;40108;53.152;5.844;2023-02-28T11:34:41;5.43;;;3.70;;
54201;SDS011;40108;53.152;5.844;2023-02-28T11:37:13;8.07;;;4.00;;
54201;SDS011;40108;53.152;5.844;2023-02-28T11:39:41;4.70;;;3.83;;
54201;SDS011;40108;53.152;5.844;2023-02-28T11:47:28;4.75;;;2.88;;
54201;SDS011;40108;53.152;5.844;2023-02-28T11:50:21;3.78;;;2.72;;
54201;SDS011;40108;53.152;5.844;2023-02-28T11:53:01;4.10;;;2.70;;
54201;SDS011;40108;53.152;5.844;2023-02-28T11:55:54;5.40;;;2.85;;
54201;SDS011;40108;53.152;5.844;2023-02-28T11:58:41;4.10;;;3.22;;
54201;SDS011;40108;53.152;5.844;2023-02-28T12:01:31;4.35;;;3.15;;
54201;SDS011;40108;53.152;5.844;2023-02-28T12:06:47;3.63;;;2.80;;
54201;SDS011;40108;53.152;5.844;2023-02-28T12:09:38;4.68;;;3.00;;
54201;SDS011;40108;53.152;5.844;2023-02-28T12:12:15;4.18;;;2.72;;
54201;SDS011;40108;53.152;5.844;2023-02-28T12:20:31;4.43;;;3.28;;
54201;SDS011;40108;53.152;5.844;2023-02-28T12:28:16;4.38;;;3.40;;
54201;SDS011;40108;53.152;5.844;2023-02-28T12:31:09;5.55;;;3.85;;
54201;SDS011;40108;53.152;5.844;2023-02-28T12:33:55;5.47;;;3.88;;
54201;SDS011;40108;53.152;5.844;2023-02-28T12:36:26;6.47;;;3.78;;
54201;SDS011;40108;53.152;5.844;2023-02-28T12:38:55;5.82;;;3.30;;
54201;SDS011;40108;53.152;5.844;2023-02-28T12:41:36;7.07;;;3.45;;
54201;SDS011;40108;53.152;5.844;2023-02-28T12:44:27;4.90;;;3.95;;
54201;SDS011;40108;53.152;5.844;2023-02-28T12:47:05;6.53;;;4.10;;
54201;SDS011;40108;53.152;5.844;2023-02-28T12:49:39;4.97;;;3.78;;
54201;SDS011;40108;53.152;5.844;2023-02-28T12:52:18;5.68;;;4.00;;
54201;SDS011;40108;53.152;5.844;2023-02-28T12:55:12;7.38;;;4.60;;
54201;SDS011;40108;53.152;5.844;2023-02-28T13:09:34;10.05;;;4.32;;
54201;SDS011;40108;53.152;5.844;2023-02-28T13:12:00;5.72;;;3.85;;
54201;SDS011;40108;53.152;5.844;2023-02-28T13:25:01;8.10;;;4.80;;
54201;SDS011;40108;53.152;5.844;2023-02-28T13:27:35;8.68;;;5.97;;
54201;SDS011;40108;53.152;5.844;2023-02-28T13:35:45;6.82;;;4.35;;
54201;SDS011;40108;53.152;5.844;2023-02-28T13:38:13;7.28;;;4.82;;
54201;SDS011;40108;53.152;5.844;2023-02-28T13:40:42;5.93;;;4.20;;
54201;SDS011;40108;53.152;5.844;2023-02-28T13:43:08;7.32;;;4.43;;
54201;SDS011;40108;53.152;5.844;2023-02-28T13:45:34;7.25;;;5.07;;
54201;SDS011;40108;53.152;5.844;2023-02-28T13:48:24;6.57;;;4.50;;
54201;SDS011;40108;53.152;5.844;2023-02-28T13:50:51;8.07;;;4.72;;
54201;SDS011;40108;53.152;5.844;2023-02-28T13:53:29;6.95;;;4.75;;
54201;SDS011;40108;53.152;5.844;2023-02-28T14:07:16;8.95;;;4.80;;
54201;SDS011;40108;53.152;5.844;2023-02-28T14:09:47;6.22;;;4.35;;
54201;SDS011;40108;53.152;5.844;2023-02-28T14:15:36;7.07;;;4.32;;
54201;SDS011;40108;53.152;5.844;2023-02-28T14:21:14;6.03;;;4.75;;
54201;SDS011;40108;53.152;5.844;2023-02-28T14:32:18;5.88;;;4.45;;
54201;SDS011;40108;53.152;5.844;2023-02-28T14:37:28;9.27;;;4.53;;
54201;SDS011;40108;53.152;5.844;2023-02-28T14:39:57;6.43;;;4.07;;
54201;SDS011;40108;53.152;5.844;2023-02-28T14:42:32;6.88;;;4.22;;
54201;SDS011;40108;53.152;5.844;2023-02-28T14:45:00;7.18;;;4.53;;
54201;SDS011;40108;53.152;5.844;2023-02-28T14:47:32;5.68;;;4.22;;
54201;SDS011;40108;53.152;5.844;2023-02-28T14:50:00;7.57;;;4.30;;
54201;SDS011;40108;53.152;5.844;2023-02-28T14:52:31;5.75;;;4.22;;
54201;SDS011;40108;53.152;5.844;2023-02-28T14:54:59;6.15;;;4.43;;
54201;SDS011;40108;53.152;5.844;2023-02-28T14:57:33;8.45;;;4.25;;
54201;SDS011;40108;53.152;5.844;2023-02-28T15:00:09;5.97;;;3.60;;
54201;SDS011;40108;53.152;5.844;2023-02-28T15:02:42;9.05;;;4.82;;
54201;SDS011;40108;53.152;5.844;2023-02-28T15:07:46;7.50;;;4.18;;
54201;SDS011;40108;53.152;5.844;2023-02-28T15:10:16;9.23;;;4.18;;
54201;SDS011;40108;53.152;5.844;2023-02-28T15:13:05;6.05;;;3.65;;
54201;SDS011;40108;53.152;5.844;2023-02-28T15:18:07;7.95;;;4.53;;
54201;SDS011;40108;53.152;5.844;2023-02-28T15:20:42;6.53;;;4.70;;
54201;SDS011;40108;53.152;5.844;2023-02-28T15:23:09;9.10;;;4.28;;
54201;SDS011;40108;53.152;5.844;2023-02-28T15:25:35;5.82;;;4.30;;
54201;SDS011;40108;53.152;5.844;2023-02-28T15:28:01;9.40;;;4.30;;
54201;SDS011;40108;53.152;5.844;2023-02-28T15:30:28;4.80;;;3.83;;
54201;SDS011;40108;53.152;5.844;2023-02-28T15:36:06;5.22;;;3.40;;
54201;SDS011;40108;53.152;5.844;2023-02-28T15:38:40;5.30;;;4.18;;
54201;SDS011;40108;53.152;5.844;2023-02-28T15:41:22;4.60;;;3.60;;
54201;SDS011;40108;53.152;5.844;2023-02-28T15:43:57;6.80;;;4.20;;
54201;SDS011;40108;53.152;5.844;2023-02-28T15:49:29;5.95;;;4.00;;
54201;SDS011;40108;53.152;5.844;2023-02-28T15:52:03;6.07;;;4.00;;
54201;SDS011;40108;53.152;5.844;2023-02-28T15:54:30;7.15;;;4.18;;
54201;SDS011;40108;53.152;5.844;2023-02-28T15:57:03;6.17;;;4.50;;
54201;SDS011;40108;53.152;5.844;2023-02-28T15:59:33;7.38;;;4.75;;
54201;SDS011;40108;53.152;5.844;2023-02-28T16:02:12;6.93;;;3.92;;
54201;SDS011;40108;53.152;5.844;2023-02-28T16:07:37;4.85;;;4.25;;
54201;SDS011;40108;53.152;5.844;2023-02-28T16:10:04;5.57;;;3.53;;
54201;SDS011;40108;53.152;5.844;2023-02-28T16:12:32;8.52;;;5.60;;
54201;SDS011;40108;53.152;5.844;2023-02-28T16:15:00;8.80;;;4.38;;
54201;SDS011;40108;53.152;5.844;2023-02-28T16:17:32;6.25;;;3.95;;
54201;SDS011;40108;53.152;5.844;2023-02-28T16:20:00;6.20;;;4.00;;
54201;SDS011;40108;53.152;5.844;2023-02-28T16:22:30;6.18;;;4.18;;
54201;SDS011;40108;53.152;5.844;2023-02-28T16:24:56;4.97;;;4.03;;
54201;SDS011;40108;53.152;5.844;2023-02-28T16:27:28;6.60;;;3.97;;
54201;SDS011;40108;53.152;5.844;2023-02-28T16:29:58;5.90;;;4.35;;
54201;SDS011;40108;53.152;5.844;2023-02-28T16:32:24;4.78;;;3.75;;
54201;SDS011;40108;53.152;5.844;2023-02-28T16:34:49;7.50;;;4.15;;
54201;SDS011;40108;53.152;5.844;2023-02-28T16:37:16;6.05;;;4.38;;
54201;SDS011;40108;53.152;5.844;2023-02-28T16:39:44;7.43;;;4.22;;
54201;SDS011;40108;53.152;5.844;2023-02-28T16:42:20;7.88;;;4.53;;
54201;SDS011;40108;53.152;5.844;2023-02-28T16:44:48;5.07;;;4.03;;
54201;SDS011;40108;53.152;5.844;2023-02-28T16:47:14;7.15;;;4.13;;
54201;SDS011;40108;53.152;5.844;2023-02-28T16:49:40;7.00;;;4.85;;
54201;SDS011;40108;53.152;5.844;2023-02-28T16:52:07;7.93;;;4.75;;
54201;SDS011;40108;53.152;5.844;2023-02-28T16:54:34;7.00;;;4.97;;
54201;SDS011;40108;53.152;5.844;2023-02-28T16:56:59;7.65;;;4.88;;
54201;SDS011;40108;53.152;5.844;2023-02-28T16:59:25;9.43;;;5.05;;
54201;SDS011;40108;53.152;5.844;2023-02-28T17:01:52;5.40;;;4.90;;
54201;SDS011;40108;53.152;5.844;2023-02-28T17:04:19;6.80;;;5.50;;
54201;SDS011;40108;53.152;5.844;2023-02-28T17:06:45;7.28;;;6.00;;
54201;SDS011;40108;53.152;5.844;2023-02-28T17:09:15;8.40;;;6.50;;
54201;SDS011;40108;53.152;5.844;2023-02-28T17:11:43;10.75;;;6.32;;
54201;SDS011;40108;53.152;5.844;2023-02-28T17:14:09;9.68;;;7.10;;
54201;SDS011;40108;53.152;5.844;2023-02-28T17:16:35;9.05;;;6.65;;
54201;SDS011;40108;53.152;5.844;2023-02-28T17:19:05;9.55;;;6.78;;
54201;SDS011;40108;53.152;5.844;2023-02-28T17:21:32;10.13;;;6.82;;